Kinsey, Montana
Current Conditions -  °F | °C
As of 1:53 PM on Saturday 20 Dec 2014 (Local Time) from KMLS Reporting Station
Clear Clear  
Wind Chill: 42°   Ceiling: Unl
Heat Index: 46°   Visibility: 10mi
Dew Point: 25°   Wind: 8mph
Humidity: 44%   Direction: 250°WSW
Pressure: 29.84"   Gusts: NA
Location:  46.57°N, 105.65°W
Report Text: KMLS 202053Z AUTO 25007KT 10SM CLR 08/M04 A2984 RMK AO2 SLP121 T00781039 56016
Loading
Personal Weather Stations






























Interactive Weather Map New forecast layout! Learn more

10-Day Weather Forecast

Advertisements
Track Severe Weather on mobile